Pagrindinis puslapis
METAR-TAF:

METAR-TAF

Oro uostai :

Kalėdų sala, Australija

platuma: 10-26S, ilguma: 105-41E, Aukštis: 279 m

Dabartinis oras

Ataskaita buvo paskelbta 25 minutes, ne 01:30 UTC
Vėjas 7 kt iš Pietryčių
Temperatūra 27°C
Drėgmė 74%
Slėgis 1012 hPa
Matomumas 10 km arba daugiau
Su prošvaistėmis ne aukštis 1700 ft
Su prošvaistėmis ne aukštis 2100 ft

METAR: YPXM 290130Z AUTO 13007KT 9999 // BKN017 BKN021 27/22 Q1012

Laikas: 08:55 (01:55 UTC)

Prognozė

Ataskaita buvo paskelbta 2 valandos ir 37 minutes, ne 23:18 UTC
Prognozė galioja nuo 29 metu 00 UTC su 30 metu 00 UTC
Vėjas 10 kt iš Pietų
Matomumas 10 km arba daugiau
Išsisklaidę debesys ne aukštis 1200 ft
Su prošvaistėmis ne aukštis 1000 ft

TAF: YPXM 282318Z 2900/3000 17010KT 9999 SCT012 INTER 2900/3000 9999 BKN010

Orai ataskaitas ir orų prognozės (METAR, TAF).

turimą stotys yra geltonos ir raudonos taškus žemėlapyje.

Perkelti pele per norėdami pamatyti stoties vardą.

Tada spustelėkite, norėdami matyti oro stebėjimo ir prognozės.

Norėdami pakeisti žemėlapį: spustelėkite ant žalios mygtukų su juodo kryžiaus žemyn,; žalią mygtuką su brūkšneliu, jei norite nutolinti; arba žalių rodyklių gretimoms žemėlapius.


METAR-TAF: